sensor_id;sensor_type;location;lat;lon;timestamp;P1;durP1;ratioP1;P2;durP2;ratioP2
46551;SDS011;32278;51.810;4.712;2022-11-15T00:00:43;94.28;;;28.35;;
46551;SDS011;32278;51.810;4.712;2022-11-15T00:03:09;93.88;;;26.67;;
46551;SDS011;32278;51.810;4.712;2022-11-15T00:05:35;87.45;;;26.88;;
46551;SDS011;32278;51.810;4.712;2022-11-15T00:08:01;96.38;;;28.65;;
46551;SDS011;32278;51.810;4.712;2022-11-15T00:10:26;101.82;;;29.83;;
46551;SDS011;32278;51.810;4.712;2022-11-15T00:12:52;111.78;;;30.05;;
46551;SDS011;32278;51.810;4.712;2022-11-15T00:15:17;96.28;;;27.90;;
46551;SDS011;32278;51.810;4.712;2022-11-15T00:17:43;96.20;;;29.45;;
46551;SDS011;32278;51.810;4.712;2022-11-15T00:20:09;99.60;;;29.98;;
46551;SDS011;32278;51.810;4.712;2022-11-15T00:22:36;93.78;;;28.05;;
46551;SDS011;32278;51.810;4.712;2022-11-15T00:25:02;90.22;;;28.83;;
46551;SDS011;32278;51.810;4.712;2022-11-15T00:27:28;98.57;;;29.02;;
46551;SDS011;32278;51.810;4.712;2022-11-15T00:29:53;140.98;;;34.65;;
46551;SDS011;32278;51.810;4.712;2022-11-15T00:32:19;136.05;;;35.55;;
46551;SDS011;32278;51.810;4.712;2022-11-15T00:34:45;101.95;;;29.33;;
46551;SDS011;32278;51.810;4.712;2022-11-15T00:37:10;105.45;;;30.90;;
46551;SDS011;32278;51.810;4.712;2022-11-15T00:39:36;107.18;;;33.08;;
46551;SDS011;32278;51.810;4.712;2022-11-15T00:42:01;113.07;;;31.45;;
46551;SDS011;32278;51.810;4.712;2022-11-15T00:44:27;104.82;;;29.80;;
46551;SDS011;32278;51.810;4.712;2022-11-15T00:46:52;112.90;;;32.80;;
46551;SDS011;32278;51.810;4.712;2022-11-15T00:49:18;109.53;;;32.03;;
46551;SDS011;32278;51.810;4.712;2022-11-15T00:51:44;117.93;;;31.75;;
46551;SDS011;32278;51.810;4.712;2022-11-15T00:54:09;124.30;;;33.92;;
46551;SDS011;32278;51.810;4.712;2022-11-15T00:56:35;120.43;;;34.08;;
46551;SDS011;32278;51.810;4.712;2022-11-15T00:59:00;104.68;;;30.83;;
46551;SDS011;32278;51.810;4.712;2022-11-15T01:01:26;139.00;;;32.92;;
46551;SDS011;32278;51.810;4.712;2022-11-15T01:03:52;102.57;;;33.92;;
46551;SDS011;32278;51.810;4.712;2022-11-15T01:06:17;110.18;;;32.38;;
46551;SDS011;32278;51.810;4.712;2022-11-15T01:08:43;124.95;;;33.47;;
46551;SDS011;32278;51.810;4.712;2022-11-15T01:11:09;104.40;;;30.95;;
46551;SDS011;32278;51.810;4.712;2022-11-15T01:13:37;117.30;;;32.35;;
46551;SDS011;32278;51.810;4.712;2022-11-15T01:16:09;106.57;;;31.75;;
46551;SDS011;32278;51.810;4.712;2022-11-15T01:18:37;95.78;;;30.63;;
46551;SDS011;32278;51.810;4.712;2022-11-15T01:21:09;105.35;;;30.63;;
46551;SDS011;32278;51.810;4.712;2022-11-15T01:23:37;105.25;;;33.50;;
46551;SDS011;32278;51.810;4.712;2022-11-15T01:26:03;90.70;;;31.10;;
46551;SDS011;32278;51.810;4.712;2022-11-15T01:28:31;93.10;;;26.40;;
46551;SDS011;32278;51.810;4.712;2022-11-15T01:30:58;95.32;;;29.95;;
46551;SDS011;32278;51.810;4.712;2022-11-15T01:33:25;96.57;;;29.70;;
46551;SDS011;32278;51.810;4.712;2022-11-15T01:35:50;87.45;;;30.40;;
46551;SDS011;32278;51.810;4.712;2022-11-15T01:38:16;78.93;;;27.88;;
46551;SDS011;32278;51.810;4.712;2022-11-15T01:40:41;74.50;;;28.63;;
46551;SDS011;32278;51.810;4.712;2022-11-15T01:43:40;80.68;;;28.35;;
46551;SDS011;32278;51.810;4.712;2022-11-15T01:46:46;78.15;;;28.17;;
46551;SDS011;32278;51.810;4.712;2022-11-15T01:48:46;85.47;;;29.10;;
46551;SDS011;32278;51.810;4.712;2022-11-15T01:51:13;77.22;;;28.17;;
46551;SDS011;32278;51.810;4.712;2022-11-15T01:53:43;81.72;;;28.50;;
46551;SDS011;32278;51.810;4.712;2022-11-15T01:56:11;71.65;;;27.40;;
46551;SDS011;32278;51.810;4.712;2022-11-15T01:58:40;73.75;;;27.20;;
46551;SDS011;32278;51.810;4.712;2022-11-15T02:01:06;67.30;;;26.13;;
46551;SDS011;32278;51.810;4.712;2022-11-15T02:03:35;79.07;;;27.90;;
46551;SDS011;32278;51.810;4.712;2022-11-15T02:06:09;63.08;;;24.35;;
46551;SDS011;32278;51.810;4.712;2022-11-15T02:08:35;69.03;;;25.73;;
46551;SDS011;32278;51.810;4.712;2022-11-15T02:11:00;63.67;;;25.95;;
46551;SDS011;32278;51.810;4.712;2022-11-15T02:13:29;67.25;;;24.85;;
46551;SDS011;32278;51.810;4.712;2022-11-15T02:18:32;64.32;;;24.30;;
46551;SDS011;32278;51.810;4.712;2022-11-15T02:24:09;62.33;;;25.17;;
46551;SDS011;32278;51.810;4.712;2022-11-15T02:26:56;54.45;;;21.45;;
46551;SDS011;32278;51.810;4.712;2022-11-15T02:32:21;55.42;;;22.00;;
46551;SDS011;32278;51.810;4.712;2022-11-15T02:35:59;53.28;;;23.27;;
46551;SDS011;32278;51.810;4.712;2022-11-15T02:41:23;49.65;;;20.10;;
46551;SDS011;32278;51.810;4.712;2022-11-15T02:43:57;50.78;;;21.73;;
46551;SDS011;32278;51.810;4.712;2022-11-15T02:49:37;49.00;;;21.52;;
46551;SDS011;32278;51.810;4.712;2022-11-15T02:52:21;52.67;;;20.13;;
46551;SDS011;32278;51.810;4.712;2022-11-15T02:54:55;58.50;;;21.83;;
46551;SDS011;32278;51.810;4.712;2022-11-15T03:00:17;52.15;;;20.63;;
46551;SDS011;32278;51.810;4.712;2022-11-15T03:05:50;47.17;;;20.95;;
46551;SDS011;32278;51.810;4.712;2022-11-15T03:11:21;56.92;;;21.02;;
46551;SDS011;32278;51.810;4.712;2022-11-15T03:21:52;38.05;;;18.92;;
46551;SDS011;32278;51.810;4.712;2022-11-15T03:24:20;44.50;;;18.75;;
46551;SDS011;32278;51.810;4.712;2022-11-15T03:26:48;39.20;;;18.23;;
46551;SDS011;32278;51.810;4.712;2022-11-15T03:29:17;44.95;;;18.88;;
46551;SDS011;32278;51.810;4.712;2022-11-15T03:31:48;35.30;;;17.45;;
46551;SDS011;32278;51.810;4.712;2022-11-15T03:34:27;37.13;;;17.27;;
46551;SDS011;32278;51.810;4.712;2022-11-15T03:37:01;43.05;;;18.10;;
46551;SDS011;32278;51.810;4.712;2022-11-15T03:39:26;37.70;;;16.75;;
46551;SDS011;32278;51.810;4.712;2022-11-15T03:44:49;28.48;;;15.23;;
46551;SDS011;32278;51.810;4.712;2022-11-15T03:47:23;34.50;;;16.40;;
46551;SDS011;32278;51.810;4.712;2022-11-15T03:50:10;36.67;;;16.48;;
46551;SDS011;32278;51.810;4.712;2022-11-15T03:52:38;33.72;;;16.17;;
46551;SDS011;32278;51.810;4.712;2022-11-15T03:55:06;32.45;;;16.63;;
46551;SDS011;32278;51.810;4.712;2022-11-15T03:57:35;37.28;;;18.10;;
46551;SDS011;32278;51.810;4.712;2022-11-15T04:00:00;33.45;;;16.25;;
46551;SDS011;32278;51.810;4.712;2022-11-15T04:02:26;39.30;;;17.90;;
46551;SDS011;32278;51.810;4.712;2022-11-15T04:04:53;30.85;;;16.25;;
46551;SDS011;32278;51.810;4.712;2022-11-15T04:07:18;32.78;;;15.63;;
46551;SDS011;32278;51.810;4.712;2022-11-15T04:09:44;34.00;;;15.90;;
46551;SDS011;32278;51.810;4.712;2022-11-15T04:12:38;34.78;;;15.50;;
46551;SDS011;32278;51.810;4.712;2022-11-15T04:15:08;28.35;;;14.00;;
46551;SDS011;32278;51.810;4.712;2022-11-15T04:17:43;27.70;;;13.52;;
46551;SDS011;32278;51.810;4.712;2022-11-15T04:20:14;30.58;;;13.40;;
46551;SDS011;32278;51.810;4.712;2022-11-15T04:23:07;30.50;;;14.88;;
46551;SDS011;32278;51.810;4.712;2022-11-15T04:25:56;31.95;;;14.27;;
46551;SDS011;32278;51.810;4.712;2022-11-15T04:28:24;34.13;;;15.68;;
46551;SDS011;32278;51.810;4.712;2022-11-15T04:30:50;30.10;;;13.80;;
46551;SDS011;32278;51.810;4.712;2022-11-15T04:33:15;31.58;;;14.85;;
46551;SDS011;32278;51.810;4.712;2022-11-15T04:35:41;32.85;;;15.35;;
46551;SDS011;32278;51.810;4.712;2022-11-15T04:38:08;38.13;;;15.07;;
46551;SDS011;32278;51.810;4.712;2022-11-15T04:40:35;39.17;;;14.75;;
46551;SDS011;32278;51.810;4.712;2022-11-15T04:43:02;32.22;;;15.07;;
46551;SDS011;32278;51.810;4.712;2022-11-15T04:45:28;26.75;;;13.82;;
46551;SDS011;32278;51.810;4.712;2022-11-15T04:47:54;27.63;;;14.77;;
46551;SDS011;32278;51.810;4.712;2022-11-15T04:50:19;31.73;;;14.80;;
46551;SDS011;32278;51.810;4.712;2022-11-15T04:52:52;31.25;;;15.75;;
46551;SDS011;32278;51.810;4.712;2022-11-15T04:55:18;27.10;;;13.52;;
46551;SDS011;32278;51.810;4.712;2022-11-15T04:57:44;33.15;;;14.20;;
46551;SDS011;32278;51.810;4.712;2022-11-15T05:00:11;31.13;;;13.60;;
46551;SDS011;32278;51.810;4.712;2022-11-15T05:02:38;33.22;;;13.50;;
46551;SDS011;32278;51.810;4.712;2022-11-15T05:05:23;29.13;;;13.90;;
46551;SDS011;32278;51.810;4.712;2022-11-15T05:07:49;29.88;;;14.18;;
46551;SDS011;32278;51.810;4.712;2022-11-15T05:10:15;27.48;;;13.68;;
46551;SDS011;32278;51.810;4.712;2022-11-15T05:12:41;26.33;;;13.65;;
46551;SDS011;32278;51.810;4.712;2022-11-15T05:15:07;27.33;;;13.68;;
46551;SDS011;32278;51.810;4.712;2022-11-15T05:17:33;28.30;;;13.82;;
46551;SDS011;32278;51.810;4.712;2022-11-15T05:19:59;28.60;;;12.90;;
46551;SDS011;32278;51.810;4.712;2022-11-15T05:22:25;40.45;;;13.60;;
46551;SDS011;32278;51.810;4.712;2022-11-15T05:24:51;26.55;;;12.48;;
46551;SDS011;32278;51.810;4.712;2022-11-15T05:27:16;27.02;;;13.38;;
46551;SDS011;32278;51.810;4.712;2022-11-15T05:29:42;26.52;;;11.80;;
46551;SDS011;32278;51.810;4.712;2022-11-15T05:32:08;26.67;;;11.95;;
46551;SDS011;32278;51.810;4.712;2022-11-15T05:34:35;25.20;;;11.43;;
46551;SDS011;32278;51.810;4.712;2022-11-15T05:37:00;25.65;;;12.02;;
46551;SDS011;32278;51.810;4.712;2022-11-15T05:39:26;31.73;;;13.13;;
46551;SDS011;32278;51.810;4.712;2022-11-15T05:41:53;21.05;;;11.57;;
46551;SDS011;32278;51.810;4.712;2022-11-15T05:44:23;29.10;;;13.27;;
46551;SDS011;32278;51.810;4.712;2022-11-15T05:46:51;30.27;;;12.10;;
46551;SDS011;32278;51.810;4.712;2022-11-15T05:49:20;26.60;;;12.95;;
46551;SDS011;32278;51.810;4.712;2022-11-15T05:51:49;24.17;;;12.52;;
46551;SDS011;32278;51.810;4.712;2022-11-15T05:54:16;27.25;;;13.30;;
46551;SDS011;32278;51.810;4.712;2022-11-15T05:56:44;24.40;;;11.00;;
46551;SDS011;32278;51.810;4.712;2022-11-15T05:59:10;23.38;;;10.75;;
46551;SDS011;32278;51.810;4.712;2022-11-15T06:01:36;23.00;;;12.35;;
46551;SDS011;32278;51.810;4.712;2022-11-15T06:04:04;23.15;;;11.73;;
46551;SDS011;32278;51.810;4.712;2022-11-15T06:06:29;23.38;;;11.80;;
46551;SDS011;32278;51.810;4.712;2022-11-15T06:08:55;35.15;;;11.68;;
46551;SDS011;32278;51.810;4.712;2022-11-15T06:11:20;25.88;;;11.02;;
46551;SDS011;32278;51.810;4.712;2022-11-15T06:13:46;27.92;;;11.90;;
46551;SDS011;32278;51.810;4.712;2022-11-15T06:16:12;23.67;;;11.40;;
46551;SDS011;32278;51.810;4.712;2022-11-15T06:18:38;28.77;;;12.15;;
46551;SDS011;32278;51.810;4.712;2022-11-15T06:21:04;28.80;;;11.38;;
46551;SDS011;32278;51.810;4.712;2022-11-15T06:23:34;21.17;;;10.35;;
46551;SDS011;32278;51.810;4.712;2022-11-15T06:26:00;23.40;;;10.75;;
46551;SDS011;32278;51.810;4.712;2022-11-15T06:28:28;20.27;;;10.13;;
46551;SDS011;32278;51.810;4.712;2022-11-15T06:30:55;18.38;;;10.43;;
46551;SDS011;32278;51.810;4.712;2022-11-15T06:33:21;24.02;;;10.75;;
46551;SDS011;32278;51.810;4.712;2022-11-15T06:35:46;24.35;;;10.15;;
46551;SDS011;32278;51.810;4.712;2022-11-15T06:38:12;20.30;;;9.35;;
46551;SDS011;32278;51.810;4.712;2022-11-15T06:40:38;19.98;;;9.77;;
46551;SDS011;32278;51.810;4.712;2022-11-15T06:43:05;19.85;;;9.65;;
46551;SDS011;32278;51.810;4.712;2022-11-15T06:45:31;26.75;;;10.52;;
46551;SDS011;32278;51.810;4.712;2022-11-15T06:47:57;24.13;;;10.07;;
46551;SDS011;32278;51.810;4.712;2022-11-15T06:50:24;27.40;;;11.02;;
46551;SDS011;32278;51.810;4.712;2022-11-15T06:52:50;17.80;;;10.23;;
46551;SDS011;32278;51.810;4.712;2022-11-15T06:55:16;23.73;;;10.38;;
46551;SDS011;32278;51.810;4.712;2022-11-15T06:57:51;22.40;;;10.45;;
46551;SDS011;32278;51.810;4.712;2022-11-15T07:00:18;23.00;;;10.32;;
46551;SDS011;32278;51.810;4.712;2022-11-15T07:02:45;17.42;;;8.98;;
46551;SDS011;32278;51.810;4.712;2022-11-15T07:05:11;23.25;;;9.70;;
46551;SDS011;32278;51.810;4.712;2022-11-15T07:07:38;17.42;;;8.93;;
46551;SDS011;32278;51.810;4.712;2022-11-15T07:10:04;19.83;;;9.18;;
46551;SDS011;32278;51.810;4.712;2022-11-15T07:12:30;19.50;;;9.27;;
46551;SDS011;32278;51.810;4.712;2022-11-15T07:14:56;18.27;;;9.00;;
46551;SDS011;32278;51.810;4.712;2022-11-15T07:17:21;17.88;;;9.55;;
46551;SDS011;32278;51.810;4.712;2022-11-15T07:19:47;19.80;;;9.95;;
46551;SDS011;32278;51.810;4.712;2022-11-15T07:22:12;26.55;;;9.75;;
46551;SDS011;32278;51.810;4.712;2022-11-15T07:24:38;16.27;;;7.82;;
46551;SDS011;32278;51.810;4.712;2022-11-15T07:27:04;17.50;;;8.23;;
46551;SDS011;32278;51.810;4.712;2022-11-15T07:29:29;23.65;;;9.27;;
46551;SDS011;32278;51.810;4.712;2022-11-15T07:31:55;18.40;;;8.35;;
46551;SDS011;32278;51.810;4.712;2022-11-15T07:34:20;14.95;;;7.47;;
46551;SDS011;32278;51.810;4.712;2022-11-15T07:36:47;14.32;;;8.07;;
46551;SDS011;32278;51.810;4.712;2022-11-15T07:39:12;15.63;;;7.30;;
46551;SDS011;32278;51.810;4.712;2022-11-15T07:41:39;17.52;;;7.78;;
46551;SDS011;32278;51.810;4.712;2022-11-15T07:44:04;19.92;;;7.85;;
46551;SDS011;32278;51.810;4.712;2022-11-15T07:46:30;15.25;;;6.90;;
46551;SDS011;32278;51.810;4.712;2022-11-15T07:48:56;13.70;;;7.35;;
46551;SDS011;32278;51.810;4.712;2022-11-15T07:51:22;21.67;;;7.78;;
46551;SDS011;32278;51.810;4.712;2022-11-15T07:53:48;15.98;;;6.97;;
46551;SDS011;32278;51.810;4.712;2022-11-15T07:56:14;21.92;;;7.28;;
46551;SDS011;32278;51.810;4.712;2022-11-15T07:58:40;15.68;;;7.60;;
46551;SDS011;32278;51.810;4.712;2022-11-15T08:01:06;16.95;;;7.80;;
46551;SDS011;32278;51.810;4.712;2022-11-15T08:03:33;15.65;;;7.13;;
46551;SDS011;32278;51.810;4.712;2022-11-15T08:05:59;16.67;;;6.80;;
46551;SDS011;32278;51.810;4.712;2022-11-15T08:08:25;17.42;;;7.50;;
46551;SDS011;32278;51.810;4.712;2022-11-15T08:10:50;16.77;;;6.03;;
46551;SDS011;32278;51.810;4.712;2022-11-15T08:13:16;15.32;;;5.78;;
46551;SDS011;32278;51.810;4.712;2022-11-15T08:15:42;15.10;;;6.50;;
46551;SDS011;32278;51.810;4.712;2022-11-15T08:18:12;14.00;;;6.00;;
46551;SDS011;32278;51.810;4.712;2022-11-15T08:20:39;13.05;;;6.20;;
46551;SDS011;32278;51.810;4.712;2022-11-15T08:23:05;11.45;;;6.10;;
46551;SDS011;32278;51.810;4.712;2022-11-15T08:25:32;9.63;;;5.35;;
46551;SDS011;32278;51.810;4.712;2022-11-15T08:28:00;16.38;;;6.10;;
46551;SDS011;32278;51.810;4.712;2022-11-15T08:30:28;18.35;;;6.53;;
46551;SDS011;32278;51.810;4.712;2022-11-15T08:32:55;11.13;;;6.47;;
46551;SDS011;32278;51.810;4.712;2022-11-15T08:35:23;12.65;;;6.50;;
46551;SDS011;32278;51.810;4.712;2022-11-15T08:37:49;12.77;;;6.65;;
46551;SDS011;32278;51.810;4.712;2022-11-15T08:40:15;15.07;;;6.63;;
46551;SDS011;32278;51.810;4.712;2022-11-15T08:42:40;13.05;;;6.10;;
46551;SDS011;32278;51.810;4.712;2022-11-15T08:45:07;13.32;;;6.53;;
46551;SDS011;32278;51.810;4.712;2022-11-15T08:47:33;12.32;;;6.25;;
46551;SDS011;32278;51.810;4.712;2022-11-15T08:49:59;11.63;;;6.63;;
46551;SDS011;32278;51.810;4.712;2022-11-15T08:52:25;11.38;;;6.18;;
46551;SDS011;32278;51.810;4.712;2022-11-15T08:54:51;15.60;;;7.03;;
46551;SDS011;32278;51.810;4.712;2022-11-15T08:57:16;17.58;;;6.15;;
46551;SDS011;32278;51.810;4.712;2022-11-15T08:59:42;14.23;;;6.65;;
46551;SDS011;32278;51.810;4.712;2022-11-15T09:02:11;12.57;;;6.72;;
46551;SDS011;32278;51.810;4.712;2022-11-15T09:04:39;10.93;;;5.45;;
46551;SDS011;32278;51.810;4.712;2022-11-15T09:07:06;10.60;;;5.30;;
46551;SDS011;32278;51.810;4.712;2022-11-15T09:09:32;9.60;;;5.22;;
46551;SDS011;32278;51.810;4.712;2022-11-15T09:11:57;13.85;;;5.85;;
46551;SDS011;32278;51.810;4.712;2022-11-15T09:14:23;14.57;;;4.97;;
46551;SDS011;32278;51.810;4.712;2022-11-15T09:16:49;22.02;;;6.03;;
46551;SDS011;32278;51.810;4.712;2022-11-15T09:19:14;9.43;;;4.70;;
46551;SDS011;32278;51.810;4.712;2022-11-15T09:21:40;10.10;;;4.25;;
46551;SDS011;32278;51.810;4.712;2022-11-15T09:24:06;7.38;;;3.85;;
46551;SDS011;32278;51.810;4.712;2022-11-15T09:26:31;9.48;;;3.45;;
46551;SDS011;32278;51.810;4.712;2022-11-15T09:28:57;5.00;;;3.38;;
46551;SDS011;32278;51.810;4.712;2022-11-15T09:31:23;4.80;;;3.42;;
46551;SDS011;32278;51.810;4.712;2022-11-15T09:33:49;11.93;;;4.00;;
46551;SDS011;32278;51.810;4.712;2022-11-15T09:36:15;8.68;;;3.90;;
46551;SDS011;32278;51.810;4.712;2022-11-15T09:38:41;6.18;;;3.63;;
46551;SDS011;32278;51.810;4.712;2022-11-15T09:41:32;10.75;;;3.97;;
46551;SDS011;32278;51.810;4.712;2022-11-15T09:46:46;5.57;;;3.22;;
46551;SDS011;32278;51.810;4.712;2022-11-15T09:49:18;5.50;;;2.65;;
46551;SDS011;32278;51.810;4.712;2022-11-15T09:51:45;7.35;;;3.92;;
46551;SDS011;32278;51.810;4.712;2022-11-15T09:54:29;6.55;;;3.75;;
46551;SDS011;32278;51.810;4.712;2022-11-15T09:57:03;23.38;;;3.55;;
46551;SDS011;32278;51.810;4.712;2022-11-15T10:05:22;6.38;;;2.95;;
46551;SDS011;32278;51.810;4.712;2022-11-15T10:10:53;9.50;;;3.03;;
46551;SDS011;32278;51.810;4.712;2022-11-15T10:13:23;4.35;;;2.83;;
46551;SDS011;32278;51.810;4.712;2022-11-15T10:16:42;6.03;;;2.70;;
46551;SDS011;32278;51.810;4.712;2022-11-15T10:21:57;7.80;;;2.28;;
46551;SDS011;32278;51.810;4.712;2022-11-15T10:24:45;8.02;;;3.08;;
46551;SDS011;32278;51.810;4.712;2022-11-15T10:27:15;8.15;;;3.90;;
46551;SDS011;32278;51.810;4.712;2022-11-15T10:29:46;3.10;;;1.85;;
46551;SDS011;32278;51.810;4.712;2022-11-15T10:32:13;5.22;;;2.40;;
46551;SDS011;32278;51.810;4.712;2022-11-15T10:34:41;8.52;;;2.50;;
46551;SDS011;32278;51.810;4.712;2022-11-15T10:37:07;3.70;;;2.03;;
46551;SDS011;32278;51.810;4.712;2022-11-15T10:39:33;8.68;;;2.30;;
46551;SDS011;32278;51.810;4.712;2022-11-15T10:42:14;7.57;;;1.92;;
46551;SDS011;32278;51.810;4.712;2022-11-15T10:47:41;6.90;;;2.10;;
46551;SDS011;32278;51.810;4.712;2022-11-15T10:50:03;3.40;;;1.80;;
46551;SDS011;32278;51.810;4.712;2022-11-15T10:52:32;3.15;;;1.90;;
46551;SDS011;32278;51.810;4.712;2022-11-15T10:57:47;4.75;;;1.83;;
46551;SDS011;32278;51.810;4.712;2022-11-15T11:05:29;4.20;;;1.50;;
46551;SDS011;32278;51.810;4.712;2022-11-15T11:07:59;7.90;;;1.48;;
46551;SDS011;32278;51.810;4.712;2022-11-15T11:10:57;6.85;;;1.50;;
46551;SDS011;32278;51.810;4.712;2022-11-15T11:13:28;4.00;;;1.40;;
46551;SDS011;32278;51.810;4.712;2022-11-15T11:16:19;7.55;;;1.80;;
46551;SDS011;32278;51.810;4.712;2022-11-15T11:21:59;2.63;;;1.38;;
46551;SDS011;32278;51.810;4.712;2022-11-15T11:30:00;2.90;;;1.20;;
46551;SDS011;32278;51.810;4.712;2022-11-15T11:35:30;2.97;;;1.50;;
46551;SDS011;32278;51.810;4.712;2022-11-15T11:49:32;4.60;;;1.60;;
46551;SDS011;32278;51.810;4.712;2022-11-15T12:00:45;5.43;;;1.60;;
46551;SDS011;32278;51.810;4.712;2022-11-15T12:06:22;7.63;;;1.27;;
46551;SDS011;32278;51.810;4.712;2022-11-15T12:09:06;2.42;;;0.90;;
46551;SDS011;32278;51.810;4.712;2022-11-15T12:12:04;5.30;;;1.30;;
46551;SDS011;32278;51.810;4.712;2022-11-15T12:17:17;2.70;;;1.15;;
46551;SDS011;32278;51.810;4.712;2022-11-15T12:19:47;5.80;;;1.33;;
46551;SDS011;32278;51.810;4.712;2022-11-15T12:22:24;5.07;;;2.25;;
46551;SDS011;32278;51.810;4.712;2022-11-15T12:25:13;10.47;;;3.80;;
46551;SDS011;32278;51.810;4.712;2022-11-15T12:27:55;3.88;;;1.08;;
46551;SDS011;32278;51.810;4.712;2022-11-15T12:30:53;3.35;;;1.00;;
46551;SDS011;32278;51.810;4.712;2022-11-15T12:36:09;6.53;;;0.85;;
46551;SDS011;32278;51.810;4.712;2022-11-15T12:41:16;1.27;;;0.70;;
46551;SDS011;32278;51.810;4.712;2022-11-15T12:43:43;8.55;;;1.15;;
46551;SDS011;32278;51.810;4.712;2022-11-15T12:48:58;3.15;;;1.05;;
46551;SDS011;32278;51.810;4.712;2022-11-15T12:59:48;5.47;;;0.93;;
46551;SDS011;32278;51.810;4.712;2022-11-15T13:02:24;4.57;;;1.05;;
46551;SDS011;32278;51.810;4.712;2022-11-15T13:17:40;3.30;;;0.90;;
46551;SDS011;32278;51.810;4.712;2022-11-15T13:27:52;6.75;;;0.90;;
46551;SDS011;32278;51.810;4.712;2022-11-15T13:30:23;7.07;;;1.17;;
46551;SDS011;32278;51.810;4.712;2022-11-15T13:32:54;3.65;;;0.70;;
46551;SDS011;32278;51.810;4.712;2022-11-15T13:35:22;5.13;;;1.00;;
46551;SDS011;32278;51.810;4.712;2022-11-15T13:37:50;4.68;;;0.77;;
46551;SDS011;32278;51.810;4.712;2022-11-15T13:40:21;5.57;;;1.38;;
46551;SDS011;32278;51.810;4.712;2022-11-15T13:42:52;4.40;;;1.17;;
46551;SDS011;32278;51.810;4.712;2022-11-15T13:45:18;3.42;;;0.93;;
46551;SDS011;32278;51.810;4.712;2022-11-15T13:47:44;5.63;;;1.00;;
46551;SDS011;32278;51.810;4.712;2022-11-15T13:50:16;5.35;;;0.95;;
46551;SDS011;32278;51.810;4.712;2022-11-15T13:52:44;2.40;;;0.88;;
46551;SDS011;32278;51.810;4.712;2022-11-15T13:55:21;3.65;;;1.25;;
46551;SDS011;32278;51.810;4.712;2022-11-15T13:57:49;4.00;;;0.80;;
46551;SDS011;32278;51.810;4.712;2022-11-15T14:00:38;2.55;;;0.85;;
46551;SDS011;32278;51.810;4.712;2022-11-15T14:03:21;2.70;;;0.82;;
46551;SDS011;32278;51.810;4.712;2022-11-15T14:06:03;5.90;;;1.00;;
46551;SDS011;32278;51.810;4.712;2022-11-15T14:08:37;3.88;;;0.93;;
46551;SDS011;32278;51.810;4.712;2022-11-15T14:11:26;2.75;;;0.90;;
46551;SDS011;32278;51.810;4.712;2022-11-15T14:14:04;7.13;;;0.65;;
46551;SDS011;32278;51.810;4.712;2022-11-15T14:16:34;2.78;;;0.90;;
46551;SDS011;32278;51.810;4.712;2022-11-15T14:19:02;3.28;;;0.73;;
46551;SDS011;32278;51.810;4.712;2022-11-15T14:21:29;3.92;;;0.98;;
46551;SDS011;32278;51.810;4.712;2022-11-15T14:27:21;3.00;;;0.98;;
46551;SDS011;32278;51.810;4.712;2022-11-15T14:29:47;3.22;;;1.00;;
46551;SDS011;32278;51.810;4.712;2022-11-15T14:34:46;8.75;;;0.85;;
46551;SDS011;32278;51.810;4.712;2022-11-15T14:39:47;2.85;;;1.00;;
46551;SDS011;32278;51.810;4.712;2022-11-15T14:42:12;2.53;;;0.85;;
46551;SDS011;32278;51.810;4.712;2022-11-15T14:44:38;2.55;;;0.80;;
46551;SDS011;32278;51.810;4.712;2022-11-15T14:47:04;12.35;;;3.15;;
46551;SDS011;32278;51.810;4.712;2022-11-15T14:49:29;6.00;;;1.60;;
46551;SDS011;32278;51.810;4.712;2022-11-15T14:51:55;11.77;;;5.60;;
46551;SDS011;32278;51.810;4.712;2022-11-15T14:54:20;5.68;;;1.60;;
46551;SDS011;32278;51.810;4.712;2022-11-15T14:56:46;3.38;;;1.08;;
46551;SDS011;32278;51.810;4.712;2022-11-15T14:59:11;2.88;;;1.10;;
46551;SDS011;32278;51.810;4.712;2022-11-15T15:01:37;2.33;;;1.00;;
46551;SDS011;32278;51.810;4.712;2022-11-15T15:04:03;2.45;;;0.80;;
46551;SDS011;32278;51.810;4.712;2022-11-15T15:06:28;5.45;;;0.75;;
46551;SDS011;32278;51.810;4.712;2022-11-15T15:08:55;6.63;;;1.00;;
46551;SDS011;32278;51.810;4.712;2022-11-15T15:11:22;6.32;;;0.95;;
46551;SDS011;32278;51.810;4.712;2022-11-15T15:13:50;1.60;;;0.88;;
46551;SDS011;32278;51.810;4.712;2022-11-15T15:16:16;1.98;;;0.98;;
46551;SDS011;32278;51.810;4.712;2022-11-15T15:18:41;2.28;;;1.23;;
46551;SDS011;32278;51.810;4.712;2022-11-15T15:23:47;2.55;;;0.95;;
46551;SDS011;32278;51.810;4.712;2022-11-15T15:26:13;3.30;;;1.00;;
46551;SDS011;32278;51.810;4.712;2022-11-15T15:28:39;7.97;;;1.40;;
46551;SDS011;32278;51.810;4.712;2022-11-15T15:31:04;5.38;;;0.88;;
46551;SDS011;32278;51.810;4.712;2022-11-15T15:33:30;3.92;;;1.20;;
46551;SDS011;32278;51.810;4.712;2022-11-15T15:35:56;4.22;;;1.23;;
46551;SDS011;32278;51.810;4.712;2022-11-15T15:38:22;2.22;;;0.95;;
46551;SDS011;32278;51.810;4.712;2022-11-15T15:40:48;3.70;;;1.13;;
46551;SDS011;32278;51.810;4.712;2022-11-15T15:43:15;3.58;;;1.10;;
46551;SDS011;32278;51.810;4.712;2022-11-15T15:45:40;4.38;;;1.42;;
46551;SDS011;32278;51.810;4.712;2022-11-15T15:48:13;1.17;;;0.85;;
46551;SDS011;32278;51.810;4.712;2022-11-15T15:50:41;4.85;;;0.90;;
46551;SDS011;32278;51.810;4.712;2022-11-15T15:53:11;5.68;;;1.25;;
46551;SDS011;32278;51.810;4.712;2022-11-15T15:55:37;3.53;;;1.17;;
46551;SDS011;32278;51.810;4.712;2022-11-15T15:58:04;7.00;;;0.80;;
46551;SDS011;32278;51.810;4.712;2022-11-15T16:00:30;0.80;;;0.80;;
46551;SDS011;32278;51.810;4.712;2022-11-15T16:02:58;3.03;;;1.10;;
46551;SDS011;32278;51.810;4.712;2022-11-15T16:05:24;3.63;;;0.93;;
46551;SDS011;32278;51.810;4.712;2022-11-15T16:07:50;3.00;;;0.93;;
46551;SDS011;32278;51.810;4.712;2022-11-15T16:12:44;2.35;;;1.20;;
46551;SDS011;32278;51.810;4.712;2022-11-15T16:15:10;4.70;;;1.20;;
46551;SDS011;32278;51.810;4.712;2022-11-15T16:17:41;9.02;;;1.10;;
46551;SDS011;32278;51.810;4.712;2022-11-15T16:20:23;4.55;;;1.25;;
46551;SDS011;32278;51.810;4.712;2022-11-15T16:22:57;3.85;;;1.58;;
46551;SDS011;32278;51.810;4.712;2022-11-15T16:25:24;4.35;;;1.00;;
46551;SDS011;32278;51.810;4.712;2022-11-15T16:27:50;4.50;;;1.25;;
46551;SDS011;32278;51.810;4.712;2022-11-15T16:30:17;1.90;;;1.05;;
46551;SDS011;32278;51.810;4.712;2022-11-15T16:32:43;3.17;;;1.48;;
46551;SDS011;32278;51.810;4.712;2022-11-15T16:35:13;4.20;;;1.20;;
46551;SDS011;32278;51.810;4.712;2022-11-15T16:37:40;5.35;;;1.33;;
46551;SDS011;32278;51.810;4.712;2022-11-15T16:40:24;6.03;;;3.10;;
46551;SDS011;32278;51.810;4.712;2022-11-15T16:42:57;3.67;;;1.35;;
46551;SDS011;32278;51.810;4.712;2022-11-15T16:45:28;4.32;;;1.50;;
46551;SDS011;32278;51.810;4.712;2022-11-15T16:47:56;4.53;;;1.23;;
46551;SDS011;32278;51.810;4.712;2022-11-15T16:50:25;3.42;;;1.70;;
46551;SDS011;32278;51.810;4.712;2022-11-15T16:52:53;4.68;;;1.88;;
46551;SDS011;32278;51.810;4.712;2022-11-15T16:55:21;5.40;;;1.70;;
46551;SDS011;32278;51.810;4.712;2022-11-15T16:57:48;3.88;;;1.85;;
46551;SDS011;32278;51.810;4.712;2022-11-15T17:00:14;2.72;;;1.80;;
46551;SDS011;32278;51.810;4.712;2022-11-15T17:02:42;10.05;;;1.75;;
46551;SDS011;32278;51.810;4.712;2022-11-15T17:05:10;5.43;;;2.10;;
46551;SDS011;32278;51.810;4.712;2022-11-15T17:07:36;4.30;;;2.20;;
46551;SDS011;32278;51.810;4.712;2022-11-15T17:10:01;4.43;;;1.50;;
46551;SDS011;32278;51.810;4.712;2022-11-15T17:12:27;10.15;;;2.50;;